Time;durP1;ratioP1;P1;durP2;ratioP2;P2;SDS_P1;SDS_P2;PMS_P1;PMS_P2;Temp;Humidity;BMP_temperature;BMP_pressure;BME280_temperature;BME280_humidity;BME280_pressure;Samples;Min_cycle;Max_cycle;Signal;HPM_P1;HPM_P2
2020/12/07 00:00:52;;;;;;;17.44;8.19;;;;;;;-7.00;69.48;100932.01;337539;117;1962502;-70
2020/12/07 00:02:09;;;;;;;18.61;10.57;;;;;;;-6.97;69.28;100940.60;329881;117;2254024;-70
2020/12/07 00:03:15;;;;;;;18.05;9.09;;;;;;;-6.96;69.29;100937.08;341766;111;1960799;-70
2020/12/07 00:04:21;;;;;;;17.24;8.69;;;;;;;-6.96;69.19;100939.70;319008;116;2505952;-70
2020/12/07 00:05:26;;;;;;;21.96;9.28;;;;;;;-6.99;69.25;100941.58;330892;119;1962005;-71
2020/12/07 00:06:33;;;;;;;19.92;10.47;;;;;;;-7.02;69.45;100950.44;337754;118;1962866;-70
2020/12/07 00:07:38;;;;;;;22.06;10.04;;;;;;;-7.02;69.58;100941.71;314184;117;2533983;-70
2020/12/07 00:08:44;;;;;;;17.26;7.96;;;;;;;-7.05;69.50;100939.22;320000;118;1965963;-71
2020/12/07 00:09:49;;;;;;;25.38;9.50;;;;;;;-7.07;69.79;100955.02;336112;120;1962030;-70
2020/12/07 00:10:55;;;;;;;20.45;9.14;;;;;;;-7.09;69.82;100947.22;335921;119;1962085;-70
2020/12/07 00:12:00;;;;;;;20.46;9.53;;;;;;;-7.10;69.77;100945.50;308101;116;2205972;-70
2020/12/07 00:13:06;;;;;;;21.82;10.06;;;;;;;-7.09;69.67;100930.62;336798;118;1962861;-71
2020/12/07 00:14:21;;;;;;;20.91;9.20;;;;;;;-7.13;69.93;100943.00;338004;118;1963046;-70
2020/12/07 00:15:27;;;;;;;19.96;9.61;;;;;;;-7.15;70.04;100942.20;333291;118;1962014;-70
2020/12/07 00:16:33;;;;;;;18.18;9.23;;;;;;;-7.13;69.71;100936.89;330165;117;1962022;-70
2020/12/07 00:17:39;;;;;;;14.92;7.81;;;;;;;-7.13;69.71;100948.25;337834;117;1962959;-70
2020/12/07 00:18:44;;;;;;;17.70;8.82;;;;;;;-7.11;69.83;100945.58;336365;117;1961952;-70
2020/12/07 00:19:51;;;;;;;17.61;8.15;;;;;;;-7.09;69.88;100938.50;326498;117;2271934;-70
2020/12/07 00:20:57;;;;;;;18.97;8.33;;;;;;;-7.07;69.75;100942.73;339006;119;1962018;-70
2020/12/07 00:22:02;;;;;;;17.89;9.21;;;;;;;-7.05;69.52;100945.31;339005;117;1961981;-70
2020/12/07 00:23:10;;;;;;;18.18;9.27;;;;;;;-7.07;69.51;100936.64;316995;119;2480019;-70
2020/12/07 00:24:24;;;;;;;20.55;8.29;;;;;;;-7.12;69.80;100936.84;337604;117;1961978;-71
2020/12/07 00:25:30;;;;;;;22.73;9.39;;;;;;;-7.08;69.67;100924.44;335179;119;1963089;-71
2020/12/07 00:26:37;;;;;;;16.66;8.18;;;;;;;-7.07;69.37;100936.64;334155;119;1962030;-70
2020/12/07 00:27:43;;;;;;;17.91;8.23;;;;;;;-7.09;69.44;100941.13;337327;115;1960662;-71
2020/12/07 00:28:49;;;;;;;18.89;9.57;;;;;;;-7.12;69.37;100933.34;313494;113;2065027;-71
2020/12/07 00:29:56;;;;;;;21.92;9.18;;;;;;;-7.16;69.55;100939.66;349754;114;1961942;-70
2020/12/07 00:31:03;;;;;;;18.79;9.14;;;;;;;-7.21;69.91;100936.36;304320;117;2860048;-71
2020/12/07 00:32:09;;;;;;;19.74;8.83;;;;;;;-7.22;69.88;100937.25;342649;116;1962043;-71
2020/12/07 00:33:14;;;;;;;17.85;8.63;;;;;;;-7.22;69.95;100935.50;343264;117;1961996;-70
2020/12/07 00:34:19;;;;;;;20.97;9.37;;;;;;;-7.23;69.68;100941.66;325071;115;2425907;-70
2020/12/07 00:35:25;;;;;;;20.25;8.88;;;;;;;-7.24;69.82;100937.33;344258;117;1961937;-71
2020/12/07 00:36:31;;;;;;;17.76;9.21;;;;;;;-7.25;69.67;100942.63;343715;117;1963952;-70
2020/12/07 00:37:37;;;;;;;18.09;8.52;;;;;;;-7.26;69.68;100946.18;336744;116;2853060;-70
2020/12/07 00:38:42;;;;;;;19.37;8.48;;;;;;;-7.28;69.93;100942.76;334951;115;1962059;-69
2020/12/07 00:39:48;;;;;;;17.77;9.27;;;;;;;-7.33;70.11;100949.06;343931;117;1961934;-70
2020/12/07 00:40:54;;;;;;;19.91;9.31;;;;;;;-7.36;69.90;100943.05;342871;115;1962047;-70
2020/12/07 00:41:59;;;;;;;19.40;9.53;;;;;;;-7.37;70.25;100928.23;318668;116;2531008;-69
2020/12/07 00:43:05;;;;;;;18.53;7.87;;;;;;;-7.34;70.36;100938.61;329829;116;1961997;-70
2020/12/07 00:44:10;;;;;;;15.19;6.24;;;;;;;-7.29;70.19;100939.28;339312;117;1961073;-70
2020/12/07 00:45:16;;;;;;;13.21;6.66;;;;;;;-7.25;70.12;100940.00;339577;117;1963928;-70
2020/12/07 00:46:24;;;;;;;16.51;7.76;;;;;;;-7.17;69.80;100944.05;346380;114;1960794;-70
2020/12/07 00:47:30;;;;;;;16.84;7.37;;;;;;;-7.12;69.54;100946.47;347212;115;1961921;-71
2020/12/07 00:48:35;;;;;;;17.01;7.37;;;;;;;-7.04;69.85;100941.76;333353;116;2316978;-71
2020/12/07 00:49:41;;;;;;;16.68;7.64;;;;;;;-6.99;69.39;100936.33;333337;115;1962891;-70
2020/12/07 00:50:48;;;;;;;15.89;7.13;;;;;;;-6.99;69.34;100945.05;341272;117;1961952;-70
2020/12/07 00:51:53;;;;;;;18.01;8.79;;;;;;;-6.97;69.48;100937.98;334494;116;2252051;-69
2020/12/07 00:52:59;;;;;;;15.07;7.10;;;;;;;-6.96;69.28;100930.94;335401;117;1962014;-70
2020/12/07 00:54:04;;;;;;;20.21;7.88;;;;;;;-6.91;68.64;100928.98;347031;115;1963001;-70
2020/12/07 00:55:10;;;;;;;17.51;8.63;;;;;;;-6.95;68.59;100938.77;345601;115;1962915;-70
2020/12/07 00:56:18;;;;;;;16.48;8.26;;;;;;;-7.03;68.60;100943.48;344610;116;1962000;-70
2020/12/07 00:57:32;;;;;;;17.53;8.83;;;;;;;-7.11;68.83;100941.17;336414;118;1962036;-70
2020/12/07 00:58:39;;;;;;;17.26;8.32;;;;;;;-7.17;68.90;100928.30;332429;120;1961981;-70
2020/12/07 00:59:45;;;;;;;15.93;8.47;;;;;;;-7.17;68.90;100933.55;331455;120;1961922;-70
2020/12/07 01:00:52;;;;;;;18.97;9.17;;;;;;;-7.21;69.07;100933.73;323422;124;1962932;-70
2020/12/07 01:01:57;;;;;;;17.14;8.32;;;;;;;-7.25;68.96;100930.38;309019;118;1962958;-70
2020/12/07 01:03:03;;;;;;;18.25;9.11;;;;;;;-7.29;69.11;100944.53;335837;120;1962074;-71
2020/12/07 01:04:09;;;;;;;18.10;8.99;;;;;;;-7.34;69.37;100946.48;336432;118;1963004;-71
2020/12/07 01:05:16;;;;;;;18.38;8.93;;;;;;;-7.33;69.18;100941.19;335775;118;1963960;-70
2020/12/07 01:06:36;;;;;;;19.04;9.94;;;;;;;-7.35;69.25;100940.38;292902;120;2924987;-70
2020/12/07 01:07:42;;;;;;;20.02;8.65;;;;;;;-7.35;69.18;100940.38;297561;117;2837050;-71
2020/12/07 01:08:47;;;;;;;18.62;8.92;;;;;;;-7.39;69.24;100935.31;319742;120;1962958;-71
2020/12/07 01:10:04;;;;;;;20.63;9.76;;;;;;;-7.43;69.29;100929.34;329909;122;1961986;-71
2020/12/07 01:11:20;;;;;;;22.42;9.41;;;;;;;-7.44;69.45;100938.11;307378;114;2825957;-71
2020/12/07 01:12:25;;;;;;;20.73;10.75;;;;;;;-7.45;69.52;100933.78;342593;116;1962964;-71
2020/12/07 01:13:31;;;;;;;16.83;8.69;;;;;;;-7.48;69.31;100931.28;342354;118;1962063;-71
2020/12/07 01:14:37;;;;;;;18.01;8.63;;;;;;;-7.49;69.44;100928.70;342400;116;1960951;-71
2020/12/07 01:15:44;;;;;;;24.58;11.21;;;;;;;-7.52;69.58;100927.05;346892;116;1960718;-70
2020/12/07 01:16:50;;;;;;;19.83;10.46;;;;;;;-7.54;69.44;100928.87;349250;112;1962008;-71
2020/12/07 01:17:57;;;;;;;23.03;9.81;;;;;;;-7.54;69.38;100923.62;347117;114;1960821;-71
2020/12/07 01:19:05;;;;;;;23.98;11.74;;;;;;;-7.48;69.29;100912.06;349211;114;1962046;-71
2020/12/07 01:20:11;;;;;;;21.31;9.59;;;;;;;-7.52;69.37;100912.16;347307;114;1962990;-71
2020/12/07 01:21:18;;;;;;;21.88;10.04;;;;;;;-7.53;69.27;100920.11;347847;114;1961906;-71
2020/12/07 01:22:24;;;;;;;19.24;10.23;;;;;;;-7.56;69.31;100923.71;348723;116;1962051;-71
2020/12/07 01:23:45;;;;;;;21.93;10.91;;;;;;;-7.54;69.21;100913.13;348025;114;1961871;-71
2020/12/07 01:24:51;;;;;;;21.74;9.77;;;;;;;-7.55;69.17;100925.41;301429;117;2236062;-70
2020/12/07 01:25:56;;;;;;;21.73;10.13;;;;;;;-7.57;69.12;100918.50;335994;117;1961899;-69
2020/12/07 01:27:02;;;;;;;21.39;11.26;;;;;;;-7.59;69.15;100915.11;337219;116;1960698;-74
2020/12/07 01:28:08;;;;;;;21.51;10.18;;;;;;;-7.60;69.27;100921.25;311797;117;2241874;-70
2020/12/07 01:29:13;;;;;;;20.89;10.39;;;;;;;-7.62;69.23;100920.45;325877;118;1960731;-74
2020/12/07 01:30:21;;;;;;;22.67;10.20;;;;;;;-7.62;69.10;100916.09;312692;121;2871989;-74
2020/12/07 01:31:26;;;;;;;25.92;11.84;;;;;;;-7.64;69.08;100919.69;311799;121;1961998;-73
2020/12/07 01:32:32;;;;;;;22.67;11.78;;;;;;;-7.67;69.14;100922.39;329679;117;1961946;-73
2020/12/07 01:33:39;;;;;;;21.29;10.46;;;;;;;-7.69;69.33;100922.48;335683;116;2869925;-74
2020/12/07 01:34:45;;;;;;;22.97;11.16;;;;;;;-7.78;69.22;100904.45;330422;117;1962027;-73
2020/12/07 01:35:52;;;;;;;20.78;9.91;;;;;;;-7.67;69.11;100920.66;340050;118;1962995;-74
2020/12/07 01:36:58;;;;;;;22.05;10.72;;;;;;;-7.67;69.07;100917.15;331073;118;1963798;-74
2020/12/07 01:38:04;;;;;;;18.29;9.42;;;;;;;-7.68;69.03;100924.17;333489;120;1961967;-73
2020/12/07 01:39:10;;;;;;;24.92;11.72;;;;;;;-7.64;68.78;100922.30;325378;120;2208063;-73
2020/12/07 01:40:16;;;;;;;23.63;12.98;;;;;;;-7.65;68.69;100924.05;338399;118;1961977;-73
2020/12/07 01:41:23;;;;;;;25.69;11.37;;;;;;;-7.67;68.65;100935.52;337240;118;1960998;-73
2020/12/07 01:42:28;;;;;;;25.18;11.16;;;;;;;-7.72;68.78;100933.09;327003;118;1962116;-74
2020/12/07 01:43:34;;;;;;;25.72;12.04;;;;;;;-7.72;68.83;100929.63;337248;118;1962093;-73
2020/12/07 01:44:41;;;;;;;21.03;10.58;;;;;;;-7.71;68.91;100941.81;316898;118;2847240;-74
2020/12/07 01:45:46;;;;;;;22.13;11.09;;;;;;;-7.73;68.91;100926.11;323981;118;1962846;-73
2020/12/07 01:46:52;;;;;;;22.38;10.94;;;;;;;-7.75;68.89;100934.06;338873;116;1959666;-74
2020/12/07 01:47:57;;;;;;;20.66;10.88;;;;;;;-7.79;69.01;100934.23;348677;114;1964019;-73
2020/12/07 01:49:03;;;;;;;21.77;13.53;;;;;;;-7.80;69.24;100929.91;334409;114;2188901;-73
2020/12/07 01:50:09;;;;;;;22.68;11.77;;;;;;;-7.83;69.30;100928.25;349576;114;1965050;-74
2020/12/07 01:51:16;;;;;;;22.66;11.71;;;;;;;-7.84;69.32;100920.42;304937;115;2897953;-74
2020/12/07 01:52:24;;;;;;;23.44;10.87;;;;;;;-7.85;69.22;100916.95;346001;115;1961955;-74
2020/12/07 01:53:31;;;;;;;24.25;11.22;;;;;;;-7.85;69.24;100919.58;311412;116;2207954;-73
2020/12/07 01:54:37;;;;;;;20.63;11.41;;;;;;;-7.84;69.35;100926.52;347572;116;1964077;-73
2020/12/07 01:55:44;;;;;;;22.43;11.04;;;;;;;-7.81;69.08;100918.53;323325;116;2189026;-74
2020/12/07 01:56:53;;;;;;;22.43;11.60;;;;;;;-7.83;69.03;100912.52;347094;116;1961989;-74
2020/12/07 01:58:00;;;;;;;25.61;12.58;;;;;;;-7.87;69.25;100916.16;348451;116;1961949;-74
2020/12/07 01:59:05;;;;;;;23.99;11.93;;;;;;;-7.88;69.46;100903.12;339382;114;2200966;-74
2020/12/07 02:00:27;;;;;;;25.60;12.40;;;;;;;-7.88;69.40;100910.98;305367;115;2876994;-74
2020/12/07 02:01:38;;;;;;;21.46;10.71;;;;;;;-7.88;69.28;100911.83;334085;115;1963960;-74
2020/12/07 02:02:44;;;;;;;22.41;11.36;;;;;;;-7.86;69.24;100902.15;313518;117;1961955;-74
2020/12/07 02:03:49;;;;;;;24.35;11.88;;;;;;;-7.85;69.20;100906.47;339930;117;1961990;-74
2020/12/07 02:04:55;;;;;;;19.29;9.77;;;;;;;-7.85;69.08;100898.59;338554;117;1963386;-73
2020/12/07 02:06:00;;;;;;;20.86;10.35;;;;;;;-7.85;68.98;100897.75;326178;117;2345060;-73
2020/12/07 02:07:16;;;;;;;24.71;11.08;;;;;;;-7.87;68.95;100905.66;339833;119;1961943;-74
2020/12/07 02:08:22;;;;;;;20.76;9.86;;;;;;;-7.88;68.96;100895.25;323473;123;1962020;-71
2020/12/07 02:09:31;;;;;;;25.48;10.59;;;;;;;-7.85;68.91;100909.09;323192;123;1963978;-70
2020/12/07 02:10:39;;;;;;;20.01;9.86;;;;;;;-7.85;68.86;100910.86;325205;118;1961933;-70
2020/12/07 02:11:45;;;;;;;20.54;10.52;;;;;;;-7.87;68.84;100908.28;339919;119;1961929;-69
2020/12/07 02:12:51;;;;;;;24.18;10.83;;;;;;;-7.90;68.91;100905.78;300698;117;2196242;-70
2020/12/07 02:13:56;;;;;;;21.77;11.00;;;;;;;-7.92;68.89;100909.38;339307;119;1962028;-71
2020/12/07 02:15:03;;;;;;;16.27;8.86;;;;;;;-7.92;68.85;100901.51;338207;117;1962024;-71
2020/12/07 02:16:09;;;;;;;21.91;10.28;;;;;;;-7.89;68.69;100907.48;311540;119;1967559;-71
2020/12/07 02:17:17;;;;;;;26.01;10.95;;;;;;;-7.86;68.55;100914.38;339482;119;1962002;-71
2020/12/07 02:18:22;;;;;;;25.04;11.39;;;;;;;-7.87;68.53;100915.30;337453;117;1962396;-71
2020/12/07 02:19:29;;;;;;;25.65;12.33;;;;;;;-7.93;68.67;100916.39;341144;117;1961971;-71
2020/12/07 02:20:36;;;;;;;24.89;12.09;;;;;;;-7.96;68.76;100922.61;336933;118;1961003;-71
2020/12/07 02:21:43;;;;;;;24.09;11.29;;;;;;;-7.96;68.79;100914.74;323992;119;2894966;-70
2020/12/07 02:23:01;;;;;;;20.86;11.55;;;;;;;-7.94;68.67;100913.81;339302;119;1960898;-71
2020/12/07 02:24:08;;;;;;;26.89;11.04;;;;;;;-7.96;68.62;100914.74;329359;117;1960921;-71
2020/12/07 02:25:15;;;;;;;27.48;11.49;;;;;;;-7.95;68.58;100907.72;339716;117;1960749;-71
2020/12/07 02:26:20;;;;;;;30.47;11.59;;;;;;;-7.99;68.65;100917.48;320393;119;2464885;-71
2020/12/07 02:27:27;;;;;;;28.58;13.19;;;;;;;-8.01;68.61;100905.34;335117;119;1961946;-71
2020/12/07 02:28:33;;;;;;;25.56;11.98;;;;;;;-8.00;68.81;100912.28;335338;119;1963004;-69
2020/12/07 02:29:39;;;;;;;23.91;11.58;;;;;;;-8.00;68.62;100907.04;322620;117;1961913;-71
2020/12/07 02:30:47;;;;;;;23.43;11.12;;;;;;;-8.00;68.61;100913.12;307418;119;2709866;-70
2020/12/07 02:31:57;;;;;;;23.22;11.25;;;;;;;-8.01;68.68;100910.59;338592;117;1961981;-71
2020/12/07 02:33:03;;;;;;;22.54;11.34;;;;;;;-8.00;68.52;100907.89;334701;119;1961960;-71
2020/12/07 02:34:09;;;;;;;22.86;10.46;;;;;;;-7.97;68.38;100906.92;309853;117;2547066;-70
2020/12/07 02:35:19;;;;;;;22.44;11.48;;;;;;;-8.00;68.37;100904.42;339589;118;1961923;-70
2020/12/07 02:36:27;;;;;;;21.24;10.83;;;;;;;-8.01;68.37;100918.45;340795;117;1962063;-71
2020/12/07 02:37:37;;;;;;;20.40;10.24;;;;;;;-8.05;68.50;100908.97;337873;117;1960872;-71
2020/12/07 02:38:42;;;;;;;23.51;9.84;;;;;;;-8.04;68.45;100910.70;318972;117;1961910;-71
2020/12/07 02:39:47;;;;;;;22.94;10.40;;;;;;;-8.03;68.34;100912.41;340010;117;1961949;-71
2020/12/07 02:40:53;;;;;;;20.74;10.67;;;;;;;-8.02;68.23;100916.72;339874;118;1962065;-71
2020/12/07 02:42:00;;;;;;;21.34;10.63;;;;;;;-8.07;68.36;100919.54;314379;121;2416962;-71
2020/12/07 02:43:07;;;;;;;23.49;10.91;;;;;;;-8.06;68.40;100918.61;326685;123;1961950;-72
2020/12/07 02:44:24;;;;;;;20.34;10.55;;;;;;;-8.06;68.37;100913.38;329976;120;1963971;-70
2020/12/07 02:45:31;;;;;;;21.84;10.29;;;;;;;-8.06;68.30;100913.38;320473;119;2194915;-71
2020/12/07 02:46:40;;;;;;;20.34;10.47;;;;;;;-8.05;68.28;100919.47;318901;120;2202970;-70
2020/12/07 02:47:55;;;;;;;19.06;9.11;;;;;;;-8.05;68.16;100915.07;331477;120;1962062;-70
2020/12/07 02:49:01;;;;;;;21.99;10.44;;;;;;;-8.03;68.06;100918.50;323983;123;1961951;-70
2020/12/07 02:50:08;;;;;;;24.42;10.69;;;;;;;-8.02;67.93;100927.20;324044;123;1960848;-70
2020/12/07 02:51:14;;;;;;;20.13;10.29;;;;;;;-8.04;67.87;100924.66;324635;123;1962065;-70
2020/12/07 02:52:20;;;;;;;19.24;8.95;;;;;;;-8.05;67.86;100922.09;317755;126;1961968;-70
2020/12/07 02:53:25;;;;;;;27.20;11.56;;;;;;;-8.03;67.90;100925.52;307115;126;2307874;-71
2020/12/07 02:54:30;;;;;;;19.81;9.87;;;;;;;-8.02;67.76;100909.73;308656;127;1962929;-70
2020/12/07 02:55:38;;;;;;;19.29;8.32;;;;;;;-8.02;67.66;100919.34;298886;128;2345015;-70
2020/12/07 02:56:47;;;;;;;23.63;10.15;;;;;;;-8.02;67.53;100920.23;316860;127;1963054;-69
2020/12/07 02:57:52;;;;;;;19.99;9.16;;;;;;;-8.05;67.64;100920.31;300919;117;2235032;-71
2020/12/07 02:59:00;;;;;;;23.45;11.34;;;;;;;-8.04;67.60;100932.53;338486;117;1963065;-71
2020/12/07 03:00:07;;;;;;;17.99;9.74;;;;;;;-8.04;67.59;100918.57;299300;123;2209998;-71
2020/12/07 03:01:13;;;;;;;19.59;10.05;;;;;;;-8.03;67.47;100922.89;339113;118;1960816;-70
2020/12/07 03:02:19;;;;;;;22.69;10.17;;;;;;;-8.06;67.55;100928.25;320894;118;2407891;-70
2020/12/07 03:03:27;;;;;;;21.70;11.18;;;;;;;-8.07;67.56;100919.54;339046;118;1961902;-71
2020/12/07 03:04:32;;;;;;;20.24;9.23;;;;;;;-8.10;67.60;100918.77;324586;118;2222916;-71
2020/12/07 03:05:38;;;;;;;21.54;9.78;;;;;;;-8.11;67.59;100923.17;331180;120;1962017;-69
2020/12/07 03:06:54;;;;;;;18.72;8.91;;;;;;;-8.11;67.53;100927.56;296899;124;2847995;-71
2020/12/07 03:08:00;;;;;;;20.68;10.15;;;;;;;-8.12;67.49;100926.72;305518;115;2204120;-71
2020/12/07 03:09:06;;;;;;;20.56;8.83;;;;;;;-8.10;67.39;100918.77;339982;117;1964021;-71
2020/12/07 03:10:13;;;;;;;19.75;8.77;;;;;;;-8.10;67.28;100929.27;311296;117;2858994;-69
2020/12/07 03:11:22;;;;;;;17.84;9.56;;;;;;;-8.13;67.36;100921.52;346014;117;1961998;-70
2020/12/07 03:12:27;;;;;;;20.51;9.14;;;;;;;-8.13;67.53;100926.76;340994;117;1961930;-70
2020/12/07 03:13:35;;;;;;;21.46;8.84;;;;;;;-8.12;67.36;100929.34;337986;118;1965996;-70
2020/12/07 03:14:41;;;;;;;20.19;10.04;;;;;;;-8.14;67.38;100925.06;337135;119;1963958;-70
2020/12/07 03:15:46;;;;;;;19.93;9.57;;;;;;;-8.16;67.41;100913.77;338702;118;1963942;-70
2020/12/07 03:16:53;;;;;;;19.48;9.19;;;;;;;-8.16;67.41;100919.02;316885;118;2498980;-69
2020/12/07 03:17:58;;;;;;;19.41;9.17;;;;;;;-8.18;67.50;100916.44;331518;120;1962959;-70
2020/12/07 03:19:06;;;;;;;21.86;9.52;;;;;;;-8.17;67.44;100918.16;315522;118;2852007;-70
2020/12/07 03:20:12;;;;;;;24.00;10.24;;;;;;;-8.16;67.38;100916.39;343444;115;1961937;-69
2020/12/07 03:21:29;;;;;;;23.09;10.33;;;;;;;-8.12;67.11;100912.73;344735;116;1961922;-70
2020/12/07 03:22:36;;;;;;;18.14;7.81;;;;;;;-8.12;67.00;100921.47;341121;116;1961931;-70
2020/12/07 03:23:43;;;;;;;19.97;8.78;;;;;;;-8.10;66.87;100911.76;336769;118;1964014;-70
2020/12/07 03:24:51;;;;;;;18.08;8.92;;;;;;;-8.07;66.67;100923.91;335392;118;1961985;-70
2020/12/07 03:25:56;;;;;;;19.62;8.58;;;;;;;-8.12;66.71;100920.59;331594;118;2268979;-70
2020/12/07 03:27:04;;;;;;;23.94;8.66;;;;;;;-8.14;66.83;100919.82;342262;118;1961995;-69
2020/12/07 03:28:09;;;;;;;22.52;10.00;;;;;;;-8.15;66.89;100911.07;329144;118;2290027;-69
2020/12/07 03:29:15;;;;;;;19.01;8.49;;;;;;;-8.14;66.84;100917.20;336776;118;1961921;-70
2020/12/07 03:30:23;;;;;;;19.53;8.83;;;;;;;-8.17;66.85;100922.55;320538;118;2183029;-70
2020/12/07 03:31:34;;;;;;;18.31;10.64;;;;;;;-8.19;66.97;100914.73;341998;116;1962064;-69
2020/12/07 03:32:41;;;;;;;22.54;9.05;;;;;;;-8.20;66.99;100918.28;333385;118;2857987;-69
2020/12/07 03:33:46;;;;;;;19.63;8.36;;;;;;;-8.18;66.86;100903.33;341964;117;1961979;-69
2020/12/07 03:34:53;;;;;;;18.56;9.72;;;;;;;-8.21;66.83;100906.91;343036;116;1962024;-69
2020/12/07 03:35:59;;;;;;;19.10;8.33;;;;;;;-8.20;66.75;100915.66;307668;118;2093557;-69
2020/12/07 03:37:05;;;;;;;19.52;9.34;;;;;;;-8.22;66.79;100913.08;340943;117;1961954;-69
2020/12/07 03:38:12;;;;;;;20.03;10.21;;;;;;;-8.21;66.76;100900.82;311947;118;1986112;-70
2020/12/07 03:39:18;;;;;;;18.53;9.86;;;;;;;-8.19;66.61;100906.88;341511;116;1961931;-69
2020/12/07 03:40:27;;;;;;;20.12;8.37;;;;;;;-8.24;66.70;100907.03;343071;118;1963955;-69
2020/12/07 03:41:33;;;;;;;18.59;8.52;;;;;;;-8.21;66.59;100903.44;342300;116;1963979;-69
2020/12/07 03:42:40;;;;;;;19.62;8.57;;;;;;;-8.23;66.58;100894.77;341091;117;1961978;-70
2020/12/07 03:43:48;;;;;;;19.39;9.42;;;;;;;-8.22;66.58;100896.50;300521;114;2878690;-69
2020/12/07 03:44:54;;;;;;;17.52;8.57;;;;;;;-8.22;66.46;100894.73;341959;116;1961977;-70
2020/12/07 03:46:00;;;;;;;15.73;8.14;;;;;;;-8.27;66.65;100901.05;338026;116;1961946;-69
2020/12/07 03:47:07;;;;;;;16.22;8.04;;;;;;;-8.29;66.72;100897.63;342879;116;1962078;-69
2020/12/07 03:48:13;;;;;;;20.62;8.69;;;;;;;-8.27;66.67;100904.53;338970;117;1961963;-69
2020/12/07 03:49:18;;;;;;;20.43;9.89;;;;;;;-8.26;66.59;100895.73;316250;120;2323895;-69
2020/12/07 03:50:27;;;;;;;20.13;8.59;;;;;;;-8.28;66.65;100894.97;315485;116;2869950;-69
2020/12/07 03:51:33;;;;;;;20.01;9.63;;;;;;;-8.30;66.70;100898.55;341962;116;1962929;-70
2020/12/07 03:52:40;;;;;;;21.36;10.00;;;;;;;-8.33;66.86;100888.19;341941;116;1962976;-70
2020/12/07 03:53:47;;;;;;;18.09;9.63;;;;;;;-8.33;66.89;100890.81;341379;116;1963010;-71
2020/12/07 03:54:53;;;;;;;18.91;9.58;;;;;;;-8.31;66.77;100887.19;343076;116;1962017;-70
2020/12/07 03:55:59;;;;;;;23.63;8.93;;;;;;;-8.27;66.60;100888.80;324347;118;2238915;-70
2020/12/07 03:57:05;;;;;;;21.57;9.69;;;;;;;-8.27;66.48;100890.58;341851;116;1961930;-70
2020/12/07 03:58:12;;;;;;;21.32;9.81;;;;;;;-8.31;66.56;100892.43;313646;117;1962017;-70
2020/12/07 03:59:18;;;;;;;20.93;8.98;;;;;;;-8.32;66.71;100890.73;337338;118;1962013;-71
2020/12/07 04:00:35;;;;;;;21.94;8.94;;;;;;;-8.33;66.83;100896.05;316454;118;2474883;-70
2020/12/07 04:01:44;;;;;;;18.74;8.97;;;;;;;-8.33;66.81;100893.43;303022;118;2203986;-70
2020/12/07 04:02:51;;;;;;;21.38;9.59;;;;;;;-8.32;66.79;100898.59;331811;120;1962016;-70
2020/12/07 04:04:03;;;;;;;18.38;8.96;;;;;;;-8.34;66.88;100902.18;329919;120;1962006;-70
2020/12/07 04:05:16;;;;;;;22.60;9.53;;;;;;;-8.37;66.96;100907.54;310688;121;2471006;-70
2020/12/07 04:06:50;;;;;;;19.23;9.26;;;;;;;-8.39;67.12;100907.61;324507;123;1961920;-70
2020/12/07 04:07:28;;;;;;;17.02;8.43;;;;;;;-8.40;67.11;100905.91;317165;125;1961953;-70
2020/12/07 04:08:35;;;;;;;20.73;9.78;;;;;;;-8.43;67.31;100904.26;324980;121;1963000;-69
2020/12/07 04:09:40;;;;;;;17.48;8.85;;;;;;;-8.43;67.27;100901.64;329004;121;1961977;-69
2020/12/07 04:10:47;;;;;;;16.73;9.36;;;;;;;-8.43;67.32;100909.50;306325;121;2522021;-69
2020/12/07 04:11:53;;;;;;;18.77;8.38;;;;;;;-8.43;67.25;100912.12;325786;121;1962934;-84
2020/12/07 04:12:58;;;;;;;18.67;9.39;;;;;;;-8.42;67.28;100908.58;326817;121;1962011;-70
2020/12/07 04:14:03;;;;;;;20.63;9.37;;;;;;;-8.42;67.38;100915.59;329124;121;1962015;-69
2020/12/07 04:15:09;;;;;;;16.09;8.86;;;;;;;-8.40;67.19;100908.53;306493;121;2523979;-70
2020/12/07 04:16:14;;;;;;;18.68;9.32;;;;;;;-8.42;67.17;100911.20;326690;121;1961961;-70
2020/12/07 04:17:21;;;;;;;19.71;8.97;;;;;;;-8.40;67.19;100921.64;328653;121;1962930;-70
2020/12/07 04:18:27;;;;;;;22.16;9.68;;;;;;;-8.38;67.11;100914.55;302075;121;2210851;-70
2020/12/07 04:19:33;;;;;;;22.96;10.28;;;;;;;-8.42;67.19;100916.44;328463;121;1963958;-69
2020/12/07 04:20:40;;;;;;;20.04;8.97;;;;;;;-8.44;67.31;100902.56;299320;121;2031289;-70
2020/12/07 04:21:46;;;;;;;21.97;9.88;;;;;;;-8.44;67.24;100907.80;328785;121;1962027;-71
2020/12/07 04:22:52;;;;;;;22.29;9.64;;;;;;;-8.43;67.22;100900.78;328922;121;1962006;-70
2020/12/07 04:23:58;;;;;;;23.75;9.24;;;;;;;-8.40;67.12;100900.67;309957;121;1961908;-71
2020/12/07 04:25:04;;;;;;;19.09;9.37;;;;;;;-8.36;67.00;100907.50;328792;121;1961975;-70
2020/12/07 04:26:11;;;;;;;22.77;9.42;;;;;;;-8.33;66.85;100910.00;328436;121;1962010;-70
2020/12/07 04:27:16;;;;;;;21.89;10.01;;;;;;;-8.36;66.90;100904.87;326415;121;1962996;-69
2020/12/07 04:28:22;;;;;;;17.73;8.71;;;;;;;-8.38;66.90;100897.98;329978;121;1961990;-70
2020/12/07 04:29:28;;;;;;;21.14;9.56;;;;;;;-8.39;66.84;100904.99;329865;121;1962065;-71
2020/12/07 04:30:40;;;;;;;19.91;9.08;;;;;;;-8.41;66.92;100904.22;328386;121;1961725;-70
2020/12/07 04:31:46;;;;;;;23.01;11.08;;;;;;;-8.42;66.99;100895.47;291958;121;2832108;-71
2020/12/07 04:32:52;;;;;;;21.51;9.39;;;;;;;-8.44;67.02;100897.32;322741;115;1962977;-70
2020/12/07 04:33:57;;;;;;;27.20;10.87;;;;;;;-8.40;66.95;100903.30;356018;112;1961960;-71
2020/12/07 04:35:03;;;;;;;22.67;9.87;;;;;;;-8.42;66.90;100900.72;350333;114;1962058;-70
2020/12/07 04:36:21;;;;;;;20.37;9.79;;;;;;;-8.42;66.92;100905.95;335709;113;1963013;-71
2020/12/07 04:37:27;;;;;;;19.46;9.30;;;;;;;-8.43;66.83;100899.02;298266;120;2806988;-70
2020/12/07 04:38:33;;;;;;;24.14;10.40;;;;;;;-8.43;66.88;100899.02;336097;119;1960842;-70
2020/12/07 04:39:39;;;;;;;22.34;8.99;;;;;;;-8.45;66.97;100894.73;336279;121;1960912;-70
2020/12/07 04:40:47;;;;;;;20.14;8.82;;;;;;;-8.42;66.87;100902.48;336068;120;1960992;-70
2020/12/07 04:42:06;;;;;;;20.43;9.45;;;;;;;-8.39;66.71;100902.38;335594;119;1961912;-71
2020/12/07 04:43:12;;;;;;;20.04;9.44;;;;;;;-8.38;66.78;100908.46;348875;114;1961919;-71
2020/12/07 04:44:18;;;;;;;19.56;8.88;;;;;;;-8.42;66.77;100912.97;314706;114;2185967;-71
2020/12/07 04:45:24;;;;;;;23.91;10.36;;;;;;;-8.45;66.83;100902.60;348705;112;1961963;-71
2020/12/07 04:46:33;;;;;;;22.10;10.28;;;;;;;-8.45;66.94;100897.36;303326;121;1961992;-71
2020/12/07 04:47:39;;;;;;;19.95;9.53;;;;;;;-8.46;66.90;100901.75;327679;121;1962028;-71
2020/12/07 04:48:55;;;;;;;18.89;8.51;;;;;;;-8.46;67.04;100893.05;314948;121;1961923;-71
2020/12/07 04:50:04;;;;;;;20.31;9.61;;;;;;;-8.48;67.07;100894.86;340708;116;1961916;-71
2020/12/07 04:51:09;;;;;;;22.11;10.76;;;;;;;-8.48;67.02;100889.61;342788;116;1961935;-71
2020/12/07 04:52:16;;;;;;;19.99;8.62;;;;;;;-8.48;67.13;100893.08;342618;114;1960954;-72
2020/12/07 04:53:22;;;;;;;21.11;9.50;;;;;;;-8.48;67.06;100895.70;329338;115;1961925;-73
2020/12/07 04:54:29;;;;;;;23.31;9.39;;;;;;;-8.47;67.08;100893.94;349008;116;1961025;-72
2020/12/07 04:55:34;;;;;;;21.12;8.43;;;;;;;-8.48;67.12;100900.94;323353;116;1961986;-71
2020/12/07 04:56:42;;;;;;;21.17;9.70;;;;;;;-8.46;66.97;100895.66;341733;116;1961815;-71
2020/12/07 04:57:49;;;;;;;24.14;9.32;;;;;;;-8.45;66.94;100884.27;308896;117;2061031;-71
2020/12/07 04:58:56;;;;;;;22.72;10.14;;;;;;;-8.47;67.00;100896.55;341599;116;1963039;-71
2020/12/07 05:00:03;;;;;;;19.19;9.17;;;;;;;-8.48;66.95;100885.22;336528;116;1963032;-71
2020/12/07 05:01:09;;;;;;;19.94;8.54;;;;;;;-8.44;66.85;100886.84;336013;119;1963015;-72